sensor_id;sensor_type;location;lat;lon;timestamp;temperature;humidity
44277;DHT22;29973;43.742;1.236;2022-09-01T00:02:14;20.00;99.90
44277;DHT22;29973;43.742;1.236;2022-09-01T00:04:42;20.10;99.90
44277;DHT22;29973;43.742;1.236;2022-09-01T00:07:09;20.10;99.90
44277;DHT22;29973;43.742;1.236;2022-09-01T00:09:36;20.00;99.90
44277;DHT22;29973;43.742;1.236;2022-09-01T00:12:04;19.90;99.90
44277;DHT22;29973;43.742;1.236;2022-09-01T00:14:35;19.80;99.90
44277;DHT22;29973;43.742;1.236;2022-09-01T00:17:04;19.80;99.90
44277;DHT22;29973;43.742;1.236;2022-09-01T00:19:30;19.80;99.90
44277;DHT22;29973;43.742;1.236;2022-09-01T00:21:57;19.80;99.90
44277;DHT22;29973;43.742;1.236;2022-09-01T00:24:23;19.70;99.90
44277;DHT22;29973;43.742;1.236;2022-09-01T00:26:50;19.60;99.90
44277;DHT22;29973;43.742;1.236;2022-09-01T00:29:16;19.50;99.90
44277;DHT22;29973;43.742;1.236;2022-09-01T00:31:42;19.60;99.90
44277;DHT22;29973;43.742;1.236;2022-09-01T00:34:08;19.50;99.90
44277;DHT22;29973;43.742;1.236;2022-09-01T00:36:34;19.50;99.90
44277;DHT22;29973;43.742;1.236;2022-09-01T00:39:00;19.40;99.90
44277;DHT22;29973;43.742;1.236;2022-09-01T00:41:28;19.50;99.90
44277;DHT22;29973;43.742;1.236;2022-09-01T00:43:58;19.40;99.90
44277;DHT22;29973;43.742;1.236;2022-09-01T00:46:51;19.40;99.90
44277;DHT22;29973;43.742;1.236;2022-09-01T00:49:31;19.40;99.90
44277;DHT22;29973;43.742;1.236;2022-09-01T00:52:07;19.40;99.90
44277;DHT22;29973;43.742;1.236;2022-09-01T00:54:37;19.40;99.90
44277;DHT22;29973;43.742;1.236;2022-09-01T00:57:05;19.30;99.90
44277;DHT22;29973;43.742;1.236;2022-09-01T00:59:35;19.20;99.90
44277;DHT22;29973;43.742;1.236;2022-09-01T01:02:03;19.20;99.90
44277;DHT22;29973;43.742;1.236;2022-09-01T01:04:29;19.10;99.90
44277;DHT22;29973;43.742;1.236;2022-09-01T01:06:57;19.10;99.90
44277;DHT22;29973;43.742;1.236;2022-09-01T01:09:29;19.00;99.90
44277;DHT22;29973;43.742;1.236;2022-09-01T01:11:57;19.00;99.90
44277;DHT22;29973;43.742;1.236;2022-09-01T01:14:25;19.10;99.90
44277;DHT22;29973;43.742;1.236;2022-09-01T01:16:58;19.00;99.90
44277;DHT22;29973;43.742;1.236;2022-09-01T01:19:44;19.00;99.90
44277;DHT22;29973;43.742;1.236;2022-09-01T01:22:46;19.00;99.90
44277;DHT22;29973;43.742;1.236;2022-09-01T01:25:43;18.90;99.90
44277;DHT22;29973;43.742;1.236;2022-09-01T01:28:19;18.90;99.90
44277;DHT22;29973;43.742;1.236;2022-09-01T01:30:58;18.90;99.90
44277;DHT22;29973;43.742;1.236;2022-09-01T01:33:31;18.90;99.90
44277;DHT22;29973;43.742;1.236;2022-09-01T01:35:58;18.80;99.90
44277;DHT22;29973;43.742;1.236;2022-09-01T01:38:26;18.80;99.90
44277;DHT22;29973;43.742;1.236;2022-09-01T01:40:54;18.70;99.90
44277;DHT22;29973;43.742;1.236;2022-09-01T01:43:21;18.60;99.90
44277;DHT22;29973;43.742;1.236;2022-09-01T01:45:50;18.70;99.90
44277;DHT22;29973;43.742;1.236;2022-09-01T01:48:17;18.70;99.90
44277;DHT22;29973;43.742;1.236;2022-09-01T01:50:48;18.70;99.90
44277;DHT22;29973;43.742;1.236;2022-09-01T01:53:14;18.60;99.90
44277;DHT22;29973;43.742;1.236;2022-09-01T01:55:45;18.50;99.90
44277;DHT22;29973;43.742;1.236;2022-09-01T01:58:13;18.50;99.90
44277;DHT22;29973;43.742;1.236;2022-09-01T02:00:39;18.60;99.90
44277;DHT22;29973;43.742;1.236;2022-09-01T02:03:09;18.60;99.90
44277;DHT22;29973;43.742;1.236;2022-09-01T02:05:37;18.60;99.90
44277;DHT22;29973;43.742;1.236;2022-09-01T02:08:07;18.60;99.90
44277;DHT22;29973;43.742;1.236;2022-09-01T02:10:39;18.70;99.90
44277;DHT22;29973;43.742;1.236;2022-09-01T02:13:08;18.70;99.90
44277;DHT22;29973;43.742;1.236;2022-09-01T02:15:39;18.70;99.90
44277;DHT22;29973;43.742;1.236;2022-09-01T02:18:12;18.70;99.90
44277;DHT22;29973;43.742;1.236;2022-09-01T02:20:41;18.70;99.90
44277;DHT22;29973;43.742;1.236;2022-09-01T02:23:07;18.70;99.90
44277;DHT22;29973;43.742;1.236;2022-09-01T02:25:42;18.70;99.90
44277;DHT22;29973;43.742;1.236;2022-09-01T02:28:13;18.70;99.90
44277;DHT22;29973;43.742;1.236;2022-09-01T02:30:45;18.60;99.90
44277;DHT22;29973;43.742;1.236;2022-09-01T02:33:13;18.60;99.90
44277;DHT22;29973;43.742;1.236;2022-09-01T02:35:52;18.50;99.90
44277;DHT22;29973;43.742;1.236;2022-09-01T02:38:18;18.50;99.90
44277;DHT22;29973;43.742;1.236;2022-09-01T02:40:46;18.60;99.90
44277;DHT22;29973;43.742;1.236;2022-09-01T02:43:14;18.60;99.90
44277;DHT22;29973;43.742;1.236;2022-09-01T02:45:49;18.60;99.90
44277;DHT22;29973;43.742;1.236;2022-09-01T02:48:19;18.60;99.90
44277;DHT22;29973;43.742;1.236;2022-09-01T02:50:49;18.60;99.90
44277;DHT22;29973;43.742;1.236;2022-09-01T02:53:15;18.50;99.90
44277;DHT22;29973;43.742;1.236;2022-09-01T02:55:41;18.50;99.90
44277;DHT22;29973;43.742;1.236;2022-09-01T02:58:08;18.50;99.90
44277;DHT22;29973;43.742;1.236;2022-09-01T03:00:41;18.50;99.90
44277;DHT22;29973;43.742;1.236;2022-09-01T03:03:08;18.60;99.90
44277;DHT22;29973;43.742;1.236;2022-09-01T03:05:34;18.50;99.90
44277;DHT22;29973;43.742;1.236;2022-09-01T03:08:06;18.50;99.90
44277;DHT22;29973;43.742;1.236;2022-09-01T03:10:36;18.40;99.90
44277;DHT22;29973;43.742;1.236;2022-09-01T03:13:05;18.40;99.90
44277;DHT22;29973;43.742;1.236;2022-09-01T03:15:33;18.50;99.90
44277;DHT22;29973;43.742;1.236;2022-09-01T03:18:02;18.40;99.90
44277;DHT22;29973;43.742;1.236;2022-09-01T03:20:30;18.40;99.90
44277;DHT22;29973;43.742;1.236;2022-09-01T03:23:09;18.30;99.90
44277;DHT22;29973;43.742;1.236;2022-09-01T03:25:35;18.40;99.90
44277;DHT22;29973;43.742;1.236;2022-09-01T03:28:03;18.30;99.90
44277;DHT22;29973;43.742;1.236;2022-09-01T03:30:32;18.30;99.90
44277;DHT22;29973;43.742;1.236;2022-09-01T03:32:59;18.30;99.90
44277;DHT22;29973;43.742;1.236;2022-09-01T03:35:27;18.30;99.90
44277;DHT22;29973;43.742;1.236;2022-09-01T03:37:57;18.20;99.90
44277;DHT22;29973;43.742;1.236;2022-09-01T03:40:26;18.10;99.90
44277;DHT22;29973;43.742;1.236;2022-09-01T03:42:53;18.10;99.90
44277;DHT22;29973;43.742;1.236;2022-09-01T03:45:20;18.10;99.90
44277;DHT22;29973;43.742;1.236;2022-09-01T03:47:46;18.00;99.90
44277;DHT22;29973;43.742;1.236;2022-09-01T03:50:18;18.10;99.90
44277;DHT22;29973;43.742;1.236;2022-09-01T03:52:48;18.00;99.90
44277;DHT22;29973;43.742;1.236;2022-09-01T03:55:17;18.00;99.90
44277;DHT22;29973;43.742;1.236;2022-09-01T03:57:52;18.10;99.90
44277;DHT22;29973;43.742;1.236;2022-09-01T04:00:19;18.00;99.90
44277;DHT22;29973;43.742;1.236;2022-09-01T04:02:48;17.90;99.90
44277;DHT22;29973;43.742;1.236;2022-09-01T04:05:15;18.00;99.90
44277;DHT22;29973;43.742;1.236;2022-09-01T04:07:42;18.00;99.90
44277;DHT22;29973;43.742;1.236;2022-09-01T04:10:10;18.00;99.90
44277;DHT22;29973;43.742;1.236;2022-09-01T04:12:36;18.00;99.90
44277;DHT22;29973;43.742;1.236;2022-09-01T04:15:04;18.00;99.90
44277;DHT22;29973;43.742;1.236;2022-09-01T04:17:30;18.00;99.90
44277;DHT22;29973;43.742;1.236;2022-09-01T04:20:14;17.90;99.90
44277;DHT22;29973;43.742;1.236;2022-09-01T04:22:45;17.70;99.90
44277;DHT22;29973;43.742;1.236;2022-09-01T04:25:12;17.60;99.90
44277;DHT22;29973;43.742;1.236;2022-09-01T04:27:38;17.60;99.90
44277;DHT22;29973;43.742;1.236;2022-09-01T04:30:06;17.50;99.90
44277;DHT22;29973;43.742;1.236;2022-09-01T04:32:36;17.50;99.90
44277;DHT22;29973;43.742;1.236;2022-09-01T04:35:03;17.40;99.90
44277;DHT22;29973;43.742;1.236;2022-09-01T04:37:29;17.30;99.90
44277;DHT22;29973;43.742;1.236;2022-09-01T04:39:56;17.30;99.90
44277;DHT22;29973;43.742;1.236;2022-09-01T04:42:24;17.20;99.90
44277;DHT22;29973;43.742;1.236;2022-09-01T04:44:51;17.30;99.90
44277;DHT22;29973;43.742;1.236;2022-09-01T04:47:18;17.30;99.90
44277;DHT22;29973;43.742;1.236;2022-09-01T04:49:45;17.40;99.90
44277;DHT22;29973;43.742;1.236;2022-09-01T04:52:13;17.40;99.90
44277;DHT22;29973;43.742;1.236;2022-09-01T04:54:39;17.40;99.90
44277;DHT22;29973;43.742;1.236;2022-09-01T04:57:05;17.40;99.90
44277;DHT22;29973;43.742;1.236;2022-09-01T04:59:32;17.50;99.90
44277;DHT22;29973;43.742;1.236;2022-09-01T05:01:59;17.50;99.90
44277;DHT22;29973;43.742;1.236;2022-09-01T05:04:28;17.60;99.90
44277;DHT22;29973;43.742;1.236;2022-09-01T05:06:57;17.70;99.90
44277;DHT22;29973;43.742;1.236;2022-09-01T05:09:31;17.80;99.90
44277;DHT22;29973;43.742;1.236;2022-09-01T05:11:58;17.80;99.90
44277;DHT22;29973;43.742;1.236;2022-09-01T05:14:39;17.80;99.90
44277;DHT22;29973;43.742;1.236;2022-09-01T05:17:08;18.00;99.90
44277;DHT22;29973;43.742;1.236;2022-09-01T05:19:43;18.10;99.90
44277;DHT22;29973;43.742;1.236;2022-09-01T05:22:09;18.20;99.90
44277;DHT22;29973;43.742;1.236;2022-09-01T05:24:36;18.40;99.90
44277;DHT22;29973;43.742;1.236;2022-09-01T05:27:04;18.40;99.90
44277;DHT22;29973;43.742;1.236;2022-09-01T05:29:29;18.40;99.90
44277;DHT22;29973;43.742;1.236;2022-09-01T05:31:56;18.50;99.90
44277;DHT22;29973;43.742;1.236;2022-09-01T05:34:24;18.60;99.90
44277;DHT22;29973;43.742;1.236;2022-09-01T05:36:56;18.80;99.90
44277;DHT22;29973;43.742;1.236;2022-09-01T05:39:22;19.00;99.90
44277;DHT22;29973;43.742;1.236;2022-09-01T05:41:49;18.90;99.90
44277;DHT22;29973;43.742;1.236;2022-09-01T05:44:15;19.00;99.90
44277;DHT22;29973;43.742;1.236;2022-09-01T05:46:41;19.00;99.90
44277;DHT22;29973;43.742;1.236;2022-09-01T05:49:10;19.00;99.90
44277;DHT22;29973;43.742;1.236;2022-09-01T05:51:41;19.00;99.90
44277;DHT22;29973;43.742;1.236;2022-09-01T05:54:08;19.10;99.90
44277;DHT22;29973;43.742;1.236;2022-09-01T05:56:36;19.10;99.90
44277;DHT22;29973;43.742;1.236;2022-09-01T05:59:06;19.10;99.90
44277;DHT22;29973;43.742;1.236;2022-09-01T06:01:32;19.20;99.90
44277;DHT22;29973;43.742;1.236;2022-09-01T06:03:59;19.20;99.90
44277;DHT22;29973;43.742;1.236;2022-09-01T06:06:32;19.40;99.90
44277;DHT22;29973;43.742;1.236;2022-09-01T06:09:00;19.60;99.90
44277;DHT22;29973;43.742;1.236;2022-09-01T06:11:26;19.70;99.90
44277;DHT22;29973;43.742;1.236;2022-09-01T06:13:53;19.70;99.90
44277;DHT22;29973;43.742;1.236;2022-09-01T06:16:20;19.80;99.90
44277;DHT22;29973;43.742;1.236;2022-09-01T06:18:49;19.90;99.90
44277;DHT22;29973;43.742;1.236;2022-09-01T06:21:17;19.90;99.90
44277;DHT22;29973;43.742;1.236;2022-09-01T06:23:44;19.80;99.90
44277;DHT22;29973;43.742;1.236;2022-09-01T06:28:43;20.00;99.90
44277;DHT22;29973;43.742;1.236;2022-09-01T06:31:09;20.00;99.90
44277;DHT22;29973;43.742;1.236;2022-09-01T06:33:37;20.10;99.90
44277;DHT22;29973;43.742;1.236;2022-09-01T06:36:03;20.20;99.90
44277;DHT22;29973;43.742;1.236;2022-09-01T06:38:30;20.30;99.90
44277;DHT22;29973;43.742;1.236;2022-09-01T06:41:03;20.30;99.90
44277;DHT22;29973;43.742;1.236;2022-09-01T06:43:31;20.40;99.90
44277;DHT22;29973;43.742;1.236;2022-09-01T06:46:00;20.60;99.90
44277;DHT22;29973;43.742;1.236;2022-09-01T06:48:27;21.00;99.90
44277;DHT22;29973;43.742;1.236;2022-09-01T06:50:58;20.80;99.90
44277;DHT22;29973;43.742;1.236;2022-09-01T06:53:23;21.00;99.90
44277;DHT22;29973;43.742;1.236;2022-09-01T06:55:49;21.00;99.90
44277;DHT22;29973;43.742;1.236;2022-09-01T06:58:17;20.70;99.90
44277;DHT22;29973;43.742;1.236;2022-09-01T07:00:43;20.90;99.90
44277;DHT22;29973;43.742;1.236;2022-09-01T07:03:12;21.00;99.90
44277;DHT22;29973;43.742;1.236;2022-09-01T07:05:40;20.70;99.90
44277;DHT22;29973;43.742;1.236;2022-09-01T07:08:09;20.50;99.90
44277;DHT22;29973;43.742;1.236;2022-09-01T07:10:43;20.50;99.90
44277;DHT22;29973;43.742;1.236;2022-09-01T07:13:14;20.60;99.90
44277;DHT22;29973;43.742;1.236;2022-09-01T07:15:45;20.60;99.90
44277;DHT22;29973;43.742;1.236;2022-09-01T07:18:18;20.80;99.90
44277;DHT22;29973;43.742;1.236;2022-09-01T07:20:46;20.80;99.90
44277;DHT22;29973;43.742;1.236;2022-09-01T07:23:14;21.00;99.90
44277;DHT22;29973;43.742;1.236;2022-09-01T07:25:43;21.30;99.90
44277;DHT22;29973;43.742;1.236;2022-09-01T07:28:10;21.50;99.90
44277;DHT22;29973;43.742;1.236;2022-09-01T07:30:44;21.50;99.90
44277;DHT22;29973;43.742;1.236;2022-09-01T07:33:14;21.40;99.90
44277;DHT22;29973;43.742;1.236;2022-09-01T07:35:40;21.10;99.90
44277;DHT22;29973;43.742;1.236;2022-09-01T07:38:08;21.40;99.90
44277;DHT22;29973;43.742;1.236;2022-09-01T07:40:38;21.60;99.90
44277;DHT22;29973;43.742;1.236;2022-09-01T07:43:14;21.40;99.90
44277;DHT22;29973;43.742;1.236;2022-09-01T07:45:43;21.60;99.90
44277;DHT22;29973;43.742;1.236;2022-09-01T07:48:12;21.90;99.90
44277;DHT22;29973;43.742;1.236;2022-09-01T07:50:41;21.60;99.90
44277;DHT22;29973;43.742;1.236;2022-09-01T07:53:16;21.60;99.90
44277;DHT22;29973;43.742;1.236;2022-09-01T07:55:44;21.40;99.90
44277;DHT22;29973;43.742;1.236;2022-09-01T07:58:11;21.40;99.90
44277;DHT22;29973;43.742;1.236;2022-09-01T08:00:38;21.40;99.90
44277;DHT22;29973;43.742;1.236;2022-09-01T08:03:04;21.70;99.90
44277;DHT22;29973;43.742;1.236;2022-09-01T08:05:30;21.80;99.90
44277;DHT22;29973;43.742;1.236;2022-09-01T08:07:57;21.80;99.90
44277;DHT22;29973;43.742;1.236;2022-09-01T08:10:22;21.50;99.90
44277;DHT22;29973;43.742;1.236;2022-09-01T08:12:49;21.70;99.90
44277;DHT22;29973;43.742;1.236;2022-09-01T08:15:15;21.70;99.90
44277;DHT22;29973;43.742;1.236;2022-09-01T08:17:41;21.80;99.90
44277;DHT22;29973;43.742;1.236;2022-09-01T08:20:17;22.30;99.90
44277;DHT22;29973;43.742;1.236;2022-09-01T08:22:45;22.50;99.90
44277;DHT22;29973;43.742;1.236;2022-09-01T08:25:11;22.40;99.90
44277;DHT22;29973;43.742;1.236;2022-09-01T08:27:37;21.60;99.90
44277;DHT22;29973;43.742;1.236;2022-09-01T08:30:05;22.10;99.90
44277;DHT22;29973;43.742;1.236;2022-09-01T08:32:33;22.50;99.90
44277;DHT22;29973;43.742;1.236;2022-09-01T08:34:59;22.10;99.90
44277;DHT22;29973;43.742;1.236;2022-09-01T08:37:25;22.20;99.90
44277;DHT22;29973;43.742;1.236;2022-09-01T08:39:51;22.70;99.90
44277;DHT22;29973;43.742;1.236;2022-09-01T08:42:48;22.70;99.90
44277;DHT22;29973;43.742;1.236;2022-09-01T08:45:22;23.10;99.90
44277;DHT22;29973;43.742;1.236;2022-09-01T08:47:59;22.50;99.90
44277;DHT22;29973;43.742;1.236;2022-09-01T08:50:27;22.90;99.90
44277;DHT22;29973;43.742;1.236;2022-09-01T08:53:02;23.30;99.90
44277;DHT22;29973;43.742;1.236;2022-09-01T08:55:38;23.20;99.90
44277;DHT22;29973;43.742;1.236;2022-09-01T08:58:05;22.50;99.90
44277;DHT22;29973;43.742;1.236;2022-09-01T09:00:40;22.60;99.90
44277;DHT22;29973;43.742;1.236;2022-09-01T09:03:18;23.00;99.90
44277;DHT22;29973;43.742;1.236;2022-09-01T09:05:58;22.90;99.90
44277;DHT22;29973;43.742;1.236;2022-09-01T09:14:00;23.80;99.90
44277;DHT22;29973;43.742;1.236;2022-09-01T09:16:39;24.20;99.90
44277;DHT22;29973;43.742;1.236;2022-09-01T09:21:51;24.20;99.90
44277;DHT22;29973;43.742;1.236;2022-09-01T09:27:33;24.20;99.90
44277;DHT22;29973;43.742;1.236;2022-09-01T09:30:10;24.70;99.90
44277;DHT22;29973;43.742;1.236;2022-09-01T09:33:04;25.20;99.90
44277;DHT22;29973;43.742;1.236;2022-09-01T09:35:37;24.90;99.90
44277;DHT22;29973;43.742;1.236;2022-09-01T09:38:15;25.10;99.90
44277;DHT22;29973;43.742;1.236;2022-09-01T09:41:14;24.80;99.90
44277;DHT22;29973;43.742;1.236;2022-09-01T09:46:25;26.20;99.90
44277;DHT22;29973;43.742;1.236;2022-09-01T09:51:51;25.70;99.90
44277;DHT22;29973;43.742;1.236;2022-09-01T09:56:47;26.20;99.90
44277;DHT22;29973;43.742;1.236;2022-09-01T09:59:27;26.40;99.90
44277;DHT22;29973;43.742;1.236;2022-09-01T10:01:58;26.20;99.90
44277;DHT22;29973;43.742;1.236;2022-09-01T10:04:37;26.30;99.90
44277;DHT22;29973;43.742;1.236;2022-09-01T10:07:23;26.40;99.90
44277;DHT22;29973;43.742;1.236;2022-09-01T10:09:50;26.70;99.90
44277;DHT22;29973;43.742;1.236;2022-09-01T10:12:17;25.30;99.90
44277;DHT22;29973;43.742;1.236;2022-09-01T10:14:57;24.80;99.90
44277;DHT22;29973;43.742;1.236;2022-09-01T10:17:35;25.40;99.90
44277;DHT22;29973;43.742;1.236;2022-09-01T10:20:10;25.30;99.90
44277;DHT22;29973;43.742;1.236;2022-09-01T10:22:38;26.50;99.90
44277;DHT22;29973;43.742;1.236;2022-09-01T10:25:06;26.50;99.90
44277;DHT22;29973;43.742;1.236;2022-09-01T10:27:38;26.60;99.90
44277;DHT22;29973;43.742;1.236;2022-09-01T10:30:19;28.00;99.90
44277;DHT22;29973;43.742;1.236;2022-09-01T10:32:50;28.30;99.90
44277;DHT22;29973;43.742;1.236;2022-09-01T10:37:50;27.10;99.90
44277;DHT22;29973;43.742;1.236;2022-09-01T10:42:49;25.90;99.90
44277;DHT22;29973;43.742;1.236;2022-09-01T10:45:37;26.20;99.90
44277;DHT22;29973;43.742;1.236;2022-09-01T10:50:47;29.10;99.90
44277;DHT22;29973;43.742;1.236;2022-09-01T11:10:28;32.40;99.90
44277;DHT22;29973;43.742;1.236;2022-09-01T11:15:44;29.80;99.90
44277;DHT22;29973;43.742;1.236;2022-09-01T11:18:15;29.00;99.90
44277;DHT22;29973;43.742;1.236;2022-09-01T11:20:42;30.80;99.90
44277;DHT22;29973;43.742;1.236;2022-09-01T11:23:27;30.30;99.90
44277;DHT22;29973;43.742;1.236;2022-09-01T11:26:01;28.60;99.90
44277;DHT22;29973;43.742;1.236;2022-09-01T11:33:41;32.40;99.90
44277;DHT22;29973;43.742;1.236;2022-09-01T11:44:24;28.20;99.90
44277;DHT22;29973;43.742;1.236;2022-09-01T11:46:51;31.00;99.90
44277;DHT22;29973;43.742;1.236;2022-09-01T11:49:27;32.90;99.90
44277;DHT22;29973;43.742;1.236;2022-09-01T11:51:54;34.40;99.90
44277;DHT22;29973;43.742;1.236;2022-09-01T11:54:22;34.60;99.90
44277;DHT22;29973;43.742;1.236;2022-09-01T11:56:48;34.00;99.90
44277;DHT22;29973;43.742;1.236;2022-09-01T11:59:14;32.60;99.90
44277;DHT22;29973;43.742;1.236;2022-09-01T12:01:56;33.30;99.90
44277;DHT22;29973;43.742;1.236;2022-09-01T12:04:31;34.50;99.90
44277;DHT22;29973;43.742;1.236;2022-09-01T12:07:04;34.90;99.90
44277;DHT22;29973;43.742;1.236;2022-09-01T12:09:45;36.10;99.90
44277;DHT22;29973;43.742;1.236;2022-09-01T12:12:59;35.40;99.90
44277;DHT22;29973;43.742;1.236;2022-09-01T12:15:25;33.40;99.90
44277;DHT22;29973;43.742;1.236;2022-09-01T12:17:52;30.80;99.90
44277;DHT22;29973;43.742;1.236;2022-09-01T12:20:22;33.20;99.90
44277;DHT22;29973;43.742;1.236;2022-09-01T12:22:48;35.50;99.90
44277;DHT22;29973;43.742;1.236;2022-09-01T12:25:25;31.60;99.90
44277;DHT22;29973;43.742;1.236;2022-09-01T12:27:52;28.90;99.90
44277;DHT22;29973;43.742;1.236;2022-09-01T12:30:19;28.60;99.90
44277;DHT22;29973;43.742;1.236;2022-09-01T12:32:45;30.40;99.90
44277;DHT22;29973;43.742;1.236;2022-09-01T12:35:19;34.10;99.90
44277;DHT22;29973;43.742;1.236;2022-09-01T12:37:46;34.80;99.90
44277;DHT22;29973;43.742;1.236;2022-09-01T12:40:33;34.10;99.90
44277;DHT22;29973;43.742;1.236;2022-09-01T12:43:00;33.60;99.90
44277;DHT22;29973;43.742;1.236;2022-09-01T12:45:39;35.20;99.90
44277;DHT22;29973;43.742;1.236;2022-09-01T12:48:05;35.70;99.10
44277;DHT22;29973;43.742;1.236;2022-09-01T12:50:34;37.30;97.00
44277;DHT22;29973;43.742;1.236;2022-09-01T12:53:00;34.90;97.40
44277;DHT22;29973;43.742;1.236;2022-09-01T12:55:36;33.40;99.90
44277;DHT22;29973;43.742;1.236;2022-09-01T12:58:04;34.00;98.60
44277;DHT22;29973;43.742;1.236;2022-09-01T13:00:59;34.90;99.20
44277;DHT22;29973;43.742;1.236;2022-09-01T13:03:26;34.90;97.70
44277;DHT22;29973;43.742;1.236;2022-09-01T13:05:56;34.90;98.10
44277;DHT22;29973;43.742;1.236;2022-09-01T13:08:29;36.30;95.50
44277;DHT22;29973;43.742;1.236;2022-09-01T13:11:00;37.30;93.40
44277;DHT22;29973;43.742;1.236;2022-09-01T13:13:27;36.70;93.70
44277;DHT22;29973;43.742;1.236;2022-09-01T13:15:55;36.70;93.20
44277;DHT22;29973;43.742;1.236;2022-09-01T13:18:23;36.80;91.80
44277;DHT22;29973;43.742;1.236;2022-09-01T13:20:49;37.60;90.90
44277;DHT22;29973;43.742;1.236;2022-09-01T13:23:16;37.10;91.40
44277;DHT22;29973;43.742;1.236;2022-09-01T13:25:42;37.40;90.20
44277;DHT22;29973;43.742;1.236;2022-09-01T13:28:12;36.80;90.20
44277;DHT22;29973;43.742;1.236;2022-09-01T13:30:39;35.20;91.40
44277;DHT22;29973;43.742;1.236;2022-09-01T13:33:06;33.90;92.00
44277;DHT22;29973;43.742;1.236;2022-09-01T13:35:32;35.40;91.30
44277;DHT22;29973;43.742;1.236;2022-09-01T13:37:57;35.40;91.10
44277;DHT22;29973;43.742;1.236;2022-09-01T13:40:23;36.30;90.50
44277;DHT22;29973;43.742;1.236;2022-09-01T13:42:51;35.30;90.50
44277;DHT22;29973;43.742;1.236;2022-09-01T13:45:19;35.20;90.30
44277;DHT22;29973;43.742;1.236;2022-09-01T13:47:46;36.00;89.70
44277;DHT22;29973;43.742;1.236;2022-09-01T13:50:15;35.80;91.30
44277;DHT22;29973;43.742;1.236;2022-09-01T13:52:46;36.00;89.50
44277;DHT22;29973;43.742;1.236;2022-09-01T13:55:15;35.20;91.00
44277;DHT22;29973;43.742;1.236;2022-09-01T13:57:41;36.00;88.80
44277;DHT22;29973;43.742;1.236;2022-09-01T14:00:13;36.70;86.20
44277;DHT22;29973;43.742;1.236;2022-09-01T14:02:42;34.80;88.60
44277;DHT22;29973;43.742;1.236;2022-09-01T14:05:14;34.10;91.40
44277;DHT22;29973;43.742;1.236;2022-09-01T14:07:40;34.00;90.80
44277;DHT22;29973;43.742;1.236;2022-09-01T14:10:06;36.50;90.20
44277;DHT22;29973;43.742;1.236;2022-09-01T14:12:33;37.20;86.20
44277;DHT22;29973;43.742;1.236;2022-09-01T14:14:59;37.90;83.60
44277;DHT22;29973;43.742;1.236;2022-09-01T14:17:24;39.40;79.10
44277;DHT22;29973;43.742;1.236;2022-09-01T14:19:51;37.80;80.20
44277;DHT22;29973;43.742;1.236;2022-09-01T14:22:17;35.60;81.90
44277;DHT22;29973;43.742;1.236;2022-09-01T14:24:42;36.90;81.10
44277;DHT22;29973;43.742;1.236;2022-09-01T14:27:08;38.00;76.90
44277;DHT22;29973;43.742;1.236;2022-09-01T14:29:35;39.00;75.30
44277;DHT22;29973;43.742;1.236;2022-09-01T14:32:01;39.50;73.30
44277;DHT22;29973;43.742;1.236;2022-09-01T14:34:27;39.30;72.30
44277;DHT22;29973;43.742;1.236;2022-09-01T14:36:53;38.50;73.70
44277;DHT22;29973;43.742;1.236;2022-09-01T14:39:21;38.90;74.40
44277;DHT22;29973;43.742;1.236;2022-09-01T14:41:46;38.60;73.70
44277;DHT22;29973;43.742;1.236;2022-09-01T14:44:12;38.10;75.00
44277;DHT22;29973;43.742;1.236;2022-09-01T14:46:38;37.90;75.20
44277;DHT22;29973;43.742;1.236;2022-09-01T14:49:04;37.10;74.80
44277;DHT22;29973;43.742;1.236;2022-09-01T14:51:32;37.80;75.70
44277;DHT22;29973;43.742;1.236;2022-09-01T14:53:58;35.50;77.00
44277;DHT22;29973;43.742;1.236;2022-09-01T14:56:24;38.50;74.90
44277;DHT22;29973;43.742;1.236;2022-09-01T14:58:51;36.80;76.20
44277;DHT22;29973;43.742;1.236;2022-09-01T15:01:19;39.50;71.10
44277;DHT22;29973;43.742;1.236;2022-09-01T15:03:46;39.60;70.10
44277;DHT22;29973;43.742;1.236;2022-09-01T15:06:14;38.40;69.80
44277;DHT22;29973;43.742;1.236;2022-09-01T15:08:40;37.80;71.90
44277;DHT22;29973;43.742;1.236;2022-09-01T15:11:14;38.10;73.00
44277;DHT22;29973;43.742;1.236;2022-09-01T15:13:41;38.90;68.90
44277;DHT22;29973;43.742;1.236;2022-09-01T15:16:22;39.50;70.70
44277;DHT22;29973;43.742;1.236;2022-09-01T15:18:48;40.10;67.00
44277;DHT22;29973;43.742;1.236;2022-09-01T15:21:27;39.30;68.70
44277;DHT22;29973;43.742;1.236;2022-09-01T15:23:55;39.40;66.50
44277;DHT22;29973;43.742;1.236;2022-09-01T15:26:21;37.80;67.70
44277;DHT22;29973;43.742;1.236;2022-09-01T15:28:48;37.10;67.70
44277;DHT22;29973;43.742;1.236;2022-09-01T15:31:16;35.30;72.00
44277;DHT22;29973;43.742;1.236;2022-09-01T15:33:42;35.40;72.70
44277;DHT22;29973;43.742;1.236;2022-09-01T15:36:14;37.60;68.20
44277;DHT22;29973;43.742;1.236;2022-09-01T15:38:41;39.00;65.70
44277;DHT22;29973;43.742;1.236;2022-09-01T15:41:06;38.10;67.90
44277;DHT22;29973;43.742;1.236;2022-09-01T15:43:32;37.00;67.50
44277;DHT22;29973;43.742;1.236;2022-09-01T15:45:59;35.50;73.70
44277;DHT22;29973;43.742;1.236;2022-09-01T15:48:27;35.10;76.40
44277;DHT22;29973;43.742;1.236;2022-09-01T15:51:11;37.50;71.10
44277;DHT22;29973;43.742;1.236;2022-09-01T15:53:53;38.10;68.50
44277;DHT22;29973;43.742;1.236;2022-09-01T16:07:42;38.40;68.40
44277;DHT22;29973;43.742;1.236;2022-09-01T16:10:09;34.90;74.30
44277;DHT22;29973;43.742;1.236;2022-09-01T16:12:40;35.10;76.20
44277;DHT22;29973;43.742;1.236;2022-09-01T16:15:12;36.10;70.80
44277;DHT22;29973;43.742;1.236;2022-09-01T16:24:01;36.80;68.20
44277;DHT22;29973;43.742;1.236;2022-09-01T16:26:21;37.50;68.40
44277;DHT22;29973;43.742;1.236;2022-09-01T16:28:54;38.20;65.40
44277;DHT22;29973;43.742;1.236;2022-09-01T16:31:24;36.60;66.70
44277;DHT22;29973;43.742;1.236;2022-09-01T16:33:51;37.50;66.90
44277;DHT22;29973;43.742;1.236;2022-09-01T16:39:27;37.10;63.80
44277;DHT22;29973;43.742;1.236;2022-09-01T16:45:35;37.20;66.60
44277;DHT22;29973;43.742;1.236;2022-09-01T16:50:58;36.40;67.60
44277;DHT22;29973;43.742;1.236;2022-09-01T16:53:57;36.80;67.70
44277;DHT22;29973;43.742;1.236;2022-09-01T17:02:19;32.00;78.00
44277;DHT22;29973;43.742;1.236;2022-09-01T17:04:48;30.40;83.90
44277;DHT22;29973;43.742;1.236;2022-09-01T17:10:31;30.70;84.20
44277;DHT22;29973;43.742;1.236;2022-09-01T17:16:14;31.80;84.50
44277;DHT22;29973;43.742;1.236;2022-09-01T17:18:55;31.60;84.60
44277;DHT22;29973;43.742;1.236;2022-09-01T17:21:34;29.80;88.00
44277;DHT22;29973;43.742;1.236;2022-09-01T17:26:48;27.70;92.60
44277;DHT22;29973;43.742;1.236;2022-09-01T17:29:52;27.40;94.30
44277;DHT22;29973;43.742;1.236;2022-09-01T17:35:22;26.80;96.60
44277;DHT22;29973;43.742;1.236;2022-09-01T17:41:00;25.80;98.80